createdAt,value
2019-05-25T00:01:42.185Z,11.77
2019-05-25T00:04:10.630Z,10.70
2019-05-25T00:06:39.016Z,10.80
2019-05-25T00:09:07.974Z,9.70
2019-05-25T00:11:36.423Z,10.13
2019-05-25T00:14:04.811Z,9.90
2019-05-25T00:16:33.897Z,10.43
2019-05-25T00:19:02.302Z,10.40
2019-05-25T00:21:30.684Z,10.00
2019-05-25T00:24:11.216Z,10.33
2019-05-25T00:26:29.140Z,9.67
2019-05-25T00:28:57.505Z,9.87
2019-05-25T00:31:26.065Z,9.87
2019-05-25T00:33:54.424Z,9.70
2019-05-25T00:36:23.081Z,9.27
2019-05-25T00:38:51.514Z,9.10
2019-05-25T00:41:19.900Z,9.83
2019-05-25T00:43:48.300Z,8.83
2019-05-25T00:46:16.735Z,9.83
2019-05-25T00:48:45.122Z,10.40
2019-05-25T00:51:13.532Z,9.00
2019-05-25T00:53:41.968Z,9.30
2019-05-25T00:56:10.351Z,9.87
2019-05-25T00:58:38.811Z,11.60
2019-05-25T01:01:07.274Z,9.67
2019-05-25T01:03:35.635Z,10.00
2019-05-25T01:06:06.572Z,10.27
2019-05-25T01:08:34.956Z,11.20
2019-05-25T01:11:03.365Z,11.07
2019-05-25T01:13:31.882Z,11.17
2019-05-25T01:16:00.303Z,10.60
2019-05-25T01:18:28.691Z,10.90
2019-05-25T01:20:57.070Z,10.50
2019-05-25T01:23:25.501Z,10.70
2019-05-25T01:25:53.891Z,11.80
2019-05-25T01:28:22.354Z,12.13
2019-05-25T01:30:50.796Z,11.07
2019-05-25T01:33:19.214Z,11.47
2019-05-25T01:35:47.620Z,11.20
2019-05-25T01:38:16.051Z,11.13
2019-05-25T01:40:44.432Z,10.80
2019-05-25T01:43:12.842Z,10.97
2019-05-25T01:45:41.262Z,10.37
2019-05-25T01:48:09.652Z,10.87
2019-05-25T01:50:38.056Z,11.90
2019-05-25T01:53:06.443Z,11.27
2019-05-25T01:55:34.885Z,11.20
2019-05-25T01:58:03.261Z,11.63
2019-05-25T02:00:31.645Z,12.30
2019-05-25T02:03:00.047Z,12.30
2019-05-25T02:05:28.461Z,12.27
2019-05-25T02:07:56.849Z,12.13
2019-05-25T02:10:25.296Z,13.07
2019-05-25T02:12:53.725Z,12.33
2019-05-25T02:15:22.104Z,11.67
2019-05-25T02:17:50.551Z,11.67
2019-05-25T02:20:18.947Z,12.93
2019-05-25T02:22:47.376Z,12.50
2019-05-25T02:25:18.159Z,12.47
2019-05-25T02:27:45.805Z,11.83
2019-05-25T02:30:15.791Z,13.17
2019-05-25T02:32:44.167Z,11.30
2019-05-25T02:35:18.500Z,11.60
2019-05-25T02:37:46.891Z,13.07
2019-05-25T02:40:15.294Z,13.87
2019-05-25T02:42:43.689Z,13.13
2019-05-25T02:45:12.085Z,13.83
2019-05-25T02:47:40.502Z,13.73
2019-05-25T02:50:08.911Z,12.70
2019-05-25T02:52:58.412Z,15.30
2019-05-25T02:55:34.313Z,13.67
2019-05-25T02:57:57.566Z,15.00
2019-05-25T03:00:33.578Z,14.23
2019-05-25T03:03:02.343Z,16.10
2019-05-25T03:05:30.740Z,16.17
2019-05-25T03:07:59.119Z,15.13
2019-05-25T03:10:27.854Z,17.03
2019-05-25T03:12:56.747Z,16.70
2019-05-25T03:15:25.200Z,16.70
2019-05-25T03:17:53.604Z,16.20
2019-05-25T03:20:22.008Z,16.37
2019-05-25T03:22:50.420Z,17.83
2019-05-25T03:25:18.830Z,17.60
2019-05-25T03:27:47.224Z,14.90
2019-05-25T03:30:15.731Z,16.17
2019-05-25T03:32:44.123Z,18.30
2019-05-25T03:35:12.511Z,17.57
2019-05-25T03:37:40.910Z,17.17
2019-05-25T03:40:09.320Z,15.03
2019-05-25T03:42:37.705Z,17.70
2019-05-25T03:45:08.204Z,17.10
2019-05-25T03:47:36.612Z,15.80
2019-05-25T03:50:08.350Z,16.03
2019-05-25T03:52:36.795Z,16.37
2019-05-25T03:55:06.522Z,16.70
2019-05-25T03:57:34.924Z,15.80
2019-05-25T04:00:04.904Z,15.13
2019-05-25T04:02:33.300Z,15.23
2019-05-25T04:05:01.735Z,15.50
2019-05-25T04:07:30.158Z,15.43
2019-05-25T04:09:58.560Z,14.17
2019-05-25T04:12:26.964Z,14.80
2019-05-25T04:14:55.558Z,14.83
2019-05-25T04:17:23.930Z,13.40
2019-05-25T04:19:52.315Z,14.10
2019-05-25T04:22:20.748Z,14.27
2019-05-25T04:24:49.524Z,13.03
2019-05-25T04:27:17.912Z,13.93
2019-05-25T04:29:46.340Z,15.67
2019-05-25T04:32:14.726Z,13.93
2019-05-25T04:34:43.124Z,14.73
2019-05-25T04:37:11.556Z,12.30
2019-05-25T04:39:39.948Z,15.17
2019-05-25T04:42:08.335Z,14.23
2019-05-25T04:44:36.760Z,13.07
2019-05-25T04:47:05.166Z,14.20
2019-05-25T04:49:33.544Z,14.33
2019-05-25T04:52:01.979Z,15.03
2019-05-25T04:54:30.352Z,14.27
2019-05-25T04:56:58.739Z,12.73
2019-05-25T04:59:27.192Z,14.10
2019-05-25T05:01:55.572Z,12.70
2019-05-25T05:04:23.970Z,13.57
2019-05-25T05:06:52.574Z,13.20
2019-05-25T05:09:20.945Z,13.17
2019-05-25T05:11:50.978Z,13.00
2019-05-25T05:14:19.378Z,12.70
2019-05-25T05:16:47.780Z,12.97
2019-05-25T05:19:16.196Z,11.97
2019-05-25T05:21:44.612Z,10.20
2019-05-25T05:24:13.172Z,10.77
2019-05-25T05:26:54.699Z,10.53
2019-05-25T05:29:11.667Z,10.60
2019-05-25T05:31:40.054Z,12.10
2019-05-25T05:34:08.496Z,10.70
2019-05-25T05:36:36.882Z,10.60
2019-05-25T05:39:08.614Z,10.30
2019-05-25T05:41:39.820Z,9.70
2019-05-25T05:44:08.464Z,8.93
2019-05-25T05:46:38.581Z,9.10
2019-05-25T05:49:07.789Z,9.33
2019-05-25T05:51:36.236Z,8.20
2019-05-25T05:54:04.881Z,7.80
2019-05-25T05:56:33.277Z,7.80
2019-05-25T05:59:01.937Z,7.30
2019-05-25T06:01:30.406Z,7.93
2019-05-25T06:03:58.764Z,8.67
2019-05-25T06:06:27.183Z,7.57
2019-05-25T06:08:55.630Z,7.27
2019-05-25T06:11:24.000Z,6.63
2019-05-25T06:13:52.446Z,7.63
2019-05-25T06:16:20.937Z,5.77
2019-05-25T06:18:49.344Z,6.50
2019-05-25T06:21:17.699Z,6.37
2019-05-25T06:23:46.129Z,6.30
2019-05-25T06:26:14.516Z,6.50
2019-05-25T06:28:43.134Z,6.73
2019-05-25T06:31:11.542Z,6.53
2019-05-25T06:33:39.948Z,6.53
2019-05-25T06:36:08.373Z,5.97
2019-05-25T06:38:36.751Z,6.47
2019-05-25T06:41:08.418Z,6.03
2019-05-25T06:43:35.197Z,6.87
2019-05-25T06:46:03.707Z,6.97
2019-05-25T06:48:32.081Z,7.07
2019-05-25T06:51:00.468Z,6.50
2019-05-25T06:53:28.912Z,6.87
2019-05-25T06:55:57.279Z,5.93
2019-05-25T06:58:26.226Z,6.57
2019-05-25T07:00:54.638Z,5.53
2019-05-25T07:03:23.088Z,6.40
2019-05-25T07:05:51.473Z,5.53
2019-05-25T07:08:19.847Z,5.37
2019-05-25T07:10:48.255Z,5.07
2019-05-25T07:13:16.659Z,5.90
2019-05-25T07:15:45.051Z,5.37
2019-05-25T07:18:13.461Z,5.20
2019-05-25T07:20:43.539Z,5.13
2019-05-25T07:23:11.924Z,4.60
2019-05-25T07:25:40.383Z,5.57
2019-05-25T07:28:08.793Z,4.87
2019-05-25T07:30:37.432Z,4.83
2019-05-25T07:33:05.958Z,4.00
2019-05-25T07:35:34.333Z,4.30
2019-05-25T07:38:02.724Z,4.03
2019-05-25T07:40:31.149Z,3.77
2019-05-25T07:42:59.544Z,4.30
2019-05-25T07:45:27.927Z,3.40
2019-05-25T07:47:56.840Z,3.20
2019-05-25T07:50:25.216Z,3.70
2019-05-25T07:52:53.613Z,2.93
2019-05-25T07:55:22.017Z,3.33
2019-05-25T07:57:50.406Z,3.33
2019-05-25T08:00:18.839Z,3.60
2019-05-25T08:02:47.214Z,3.20
2019-05-25T08:05:15.668Z,2.93
2019-05-25T08:07:44.108Z,2.80
2019-05-25T08:10:12.574Z,2.77
2019-05-25T08:12:40.956Z,3.30
2019-05-25T08:15:09.344Z,2.93
2019-05-25T08:17:37.738Z,3.07
2019-05-25T08:20:06.468Z,2.47
2019-05-25T08:22:34.858Z,2.60
2019-05-25T08:25:04.474Z,3.13
2019-05-25T08:27:32.888Z,2.63
2019-05-25T08:30:01.274Z,2.73
2019-05-25T08:32:29.640Z,2.20
2019-05-25T08:34:58.190Z,2.40
2019-05-25T08:37:26.596Z,2.63
2019-05-25T08:39:54.980Z,2.80
2019-05-25T08:42:23.413Z,2.50
2019-05-25T08:44:51.842Z,2.40
2019-05-25T08:47:20.184Z,2.10
2019-05-25T08:49:48.605Z,2.53
2019-05-25T08:52:16.980Z,2.73
2019-05-25T08:54:45.400Z,2.27
2019-05-25T08:57:17.824Z,2.43
2019-05-25T08:59:43.833Z,2.67
2019-05-25T09:02:12.231Z,2.43
2019-05-25T09:04:40.729Z,2.57
2019-05-25T09:07:09.104Z,2.33
2019-05-25T09:09:37.544Z,2.10
2019-05-25T09:12:05.911Z,2.43
2019-05-25T09:14:34.290Z,2.83
2019-05-25T09:17:02.704Z,3.10
2019-05-25T09:19:31.123Z,3.17
2019-05-25T09:22:02.918Z,2.83
2019-05-25T09:24:29.557Z,2.80
2019-05-25T09:26:57.927Z,2.80
2019-05-25T09:29:26.305Z,2.80
2019-05-25T09:31:54.752Z,3.67
2019-05-25T09:34:23.125Z,2.27
2019-05-25T09:36:51.510Z,2.70
2019-05-25T09:39:19.940Z,2.50
2019-05-25T09:41:48.474Z,2.73
2019-05-25T09:44:16.858Z,2.47
2019-05-25T09:46:45.287Z,2.80
2019-05-25T09:49:13.671Z,2.90
2019-05-25T09:51:42.049Z,2.90
2019-05-25T09:54:10.448Z,3.00
2019-05-25T09:56:38.820Z,3.20
2019-05-25T09:59:19.213Z,3.47
2019-05-25T10:01:37.260Z,2.90
2019-05-25T10:04:05.641Z,2.90
2019-05-25T10:06:34.067Z,2.70
2019-05-25T10:09:02.534Z,2.53
2019-05-25T10:11:30.917Z,2.80
2019-05-25T10:13:59.326Z,2.60
2019-05-25T10:16:27.700Z,2.50
2019-05-25T10:18:56.089Z,2.40
2019-05-25T10:21:24.541Z,2.33
2019-05-25T10:23:52.899Z,2.57
2019-05-25T10:26:23.147Z,3.20
2019-05-25T10:28:51.356Z,2.30
2019-05-25T10:31:19.797Z,2.53
2019-05-25T10:33:48.126Z,2.70
2019-05-25T10:36:16.525Z,2.40
2019-05-25T10:38:44.904Z,2.47
2019-05-25T10:41:13.287Z,3.10
2019-05-25T10:43:41.744Z,2.77
2019-05-25T10:46:10.120Z,2.70
2019-05-25T10:48:38.551Z,2.60
2019-05-25T10:51:06.936Z,2.97
2019-05-25T10:53:35.315Z,2.63
2019-05-25T10:56:03.767Z,2.20
2019-05-25T10:58:32.106Z,2.30
2019-05-25T11:01:00.514Z,2.80
2019-05-25T11:03:28.911Z,2.70
2019-05-25T11:05:57.287Z,2.60
2019-05-25T11:08:25.685Z,2.70
2019-05-25T11:10:54.057Z,2.43
2019-05-25T11:13:22.464Z,2.47
2019-05-25T11:15:50.840Z,2.58
2019-05-25T11:18:19.216Z,2.40
2019-05-25T11:20:47.649Z,2.87
2019-05-25T11:23:16.004Z,2.75
2019-05-25T11:25:44.388Z,3.17
2019-05-25T11:28:12.817Z,2.70
2019-05-25T11:30:41.205Z,2.70
2019-05-25T11:33:09.580Z,3.00
2019-05-25T11:35:38.003Z,2.93
2019-05-25T11:38:06.385Z,2.60
2019-05-25T11:40:34.754Z,3.42
2019-05-25T11:43:03.175Z,2.90
2019-05-25T11:45:31.553Z,2.85
2019-05-25T11:47:59.932Z,2.77
2019-05-25T11:50:28.330Z,2.75
2019-05-25T11:52:56.722Z,2.55
2019-05-25T11:55:25.110Z,2.62
2019-05-25T11:57:53.505Z,2.42
2019-05-25T12:00:25.323Z,2.50
2019-05-25T12:02:51.970Z,2.60
2019-05-25T12:05:20.360Z,2.62
2019-05-25T12:07:48.793Z,2.37
2019-05-25T12:10:17.164Z,2.50
2019-05-25T12:12:45.558Z,2.33
2019-05-25T12:15:14.024Z,2.42
2019-05-25T12:17:42.416Z,2.42
2019-05-25T12:20:10.816Z,2.30
2019-05-25T12:22:39.214Z,2.65
2019-05-25T12:25:07.685Z,2.55
2019-05-25T12:27:36.083Z,2.83
2019-05-25T12:30:08.499Z,2.27
2019-05-25T12:32:36.853Z,2.27
2019-05-25T12:35:06.708Z,2.42
2019-05-25T12:37:35.085Z,2.33
2019-05-25T12:40:05.367Z,2.60
2019-05-25T12:42:33.810Z,2.62
2019-05-25T12:45:02.196Z,2.60
2019-05-25T12:47:30.629Z,1.95
2019-05-25T12:49:59.005Z,2.80
2019-05-25T12:52:27.390Z,3.05
2019-05-25T12:54:55.808Z,2.60
2019-05-25T12:57:24.350Z,2.65
2019-05-25T12:59:52.764Z,2.55
2019-05-25T13:02:21.177Z,2.83
2019-05-25T13:04:49.563Z,2.92
2019-05-25T13:07:17.949Z,2.95
2019-05-25T13:09:46.369Z,3.55
2019-05-25T13:12:14.760Z,2.90
2019-05-25T13:14:43.163Z,3.50
2019-05-25T13:17:11.580Z,4.60
2019-05-25T13:19:39.972Z,4.12
2019-05-25T13:22:08.413Z,4.12
2019-05-25T13:24:36.947Z,4.15
2019-05-25T13:27:05.332Z,4.10
2019-05-25T13:29:33.785Z,4.25
2019-05-25T13:32:02.264Z,3.80
2019-05-25T13:34:30.744Z,4.55
2019-05-25T13:37:01.692Z,4.55
2019-05-25T13:39:29.253Z,4.08
2019-05-25T13:41:57.637Z,4.25
2019-05-25T13:44:26.032Z,3.95
2019-05-25T13:46:54.502Z,3.50
2019-05-25T13:49:22.904Z,3.58
2019-05-25T13:51:51.288Z,4.50
2019-05-25T13:54:19.724Z,3.35
2019-05-25T13:56:48.137Z,4.92
2019-05-25T13:59:16.520Z,3.33
2019-05-25T14:01:44.940Z,3.42
2019-05-25T14:04:13.332Z,4.87
2019-05-25T14:06:41.800Z,3.17
2019-05-25T14:09:10.266Z,3.55
2019-05-25T14:11:38.642Z,3.37
2019-05-25T14:14:07.071Z,3.55
2019-05-25T14:16:35.431Z,3.77
2019-05-25T14:19:04.078Z,3.70
2019-05-25T14:21:32.537Z,3.87
2019-05-25T14:24:20.336Z,3.45
2019-05-25T14:26:48.781Z,3.55
2019-05-25T14:29:17.159Z,2.87
2019-05-25T14:31:46.399Z,3.22
2019-05-25T14:34:16.534Z,3.40
2019-05-25T14:36:44.928Z,3.60
2019-05-25T14:39:13.392Z,3.17
2019-05-25T14:41:41.810Z,4.05
2019-05-25T14:44:11.816Z,3.90
2019-05-25T14:46:40.192Z,3.52
2019-05-25T14:49:08.640Z,3.87
2019-05-25T14:51:37.040Z,5.28
2019-05-25T14:54:05.439Z,3.10
2019-05-25T14:56:33.911Z,2.83
2019-05-25T14:59:02.316Z,3.83
2019-05-25T15:01:30.717Z,3.55
2019-05-25T15:03:59.240Z,3.83
2019-05-25T15:06:27.575Z,3.05
2019-05-25T15:08:55.968Z,3.08
2019-05-25T15:11:24.415Z,3.50
2019-05-25T15:13:52.818Z,3.55
2019-05-25T15:16:21.302Z,3.27
2019-05-25T15:18:49.676Z,3.10
2019-05-25T15:21:18.086Z,3.17
2019-05-25T15:23:46.487Z,2.85
2019-05-25T15:26:14.887Z,2.50
2019-05-25T15:28:43.309Z,3.08
2019-05-25T15:31:11.688Z,2.60
2019-05-25T15:33:40.111Z,2.87
2019-05-25T15:36:08.607Z,3.25
2019-05-25T15:38:36.991Z,3.27
2019-05-25T15:41:05.372Z,2.95
2019-05-25T15:43:33.784Z,2.58
2019-05-25T15:46:02.185Z,2.30
2019-05-25T15:48:30.600Z,2.75
2019-05-25T15:50:59.066Z,2.37
2019-05-25T15:53:27.441Z,2.10
2019-05-25T15:55:58.812Z,2.15
2019-05-25T15:58:27.169Z,2.67
2019-05-25T16:00:55.637Z,2.20
2019-05-25T16:03:24.048Z,2.50
2019-05-25T16:05:52.494Z,1.77
2019-05-25T16:08:20.870Z,1.80
2019-05-25T16:10:49.349Z,2.03
2019-05-25T16:13:17.676Z,2.27
2019-05-25T16:15:46.060Z,2.77
2019-05-25T16:18:14.464Z,2.00
2019-05-25T16:20:42.882Z,1.90
2019-05-25T16:23:11.292Z,1.93
2019-05-25T16:25:39.668Z,1.77
2019-05-25T16:28:08.065Z,1.83
2019-05-25T16:30:36.483Z,1.77
2019-05-25T16:35:34.868Z,1.93
2019-05-25T16:38:03.423Z,1.70
2019-05-25T16:38:21.051Z,1.60
2019-05-25T16:40:32.032Z,1.77
2019-05-25T16:43:00.397Z,1.77
2019-05-25T16:45:28.825Z,1.60
2019-05-25T16:47:57.184Z,1.77
2019-05-25T16:50:25.598Z,1.90
2019-05-25T16:52:54.167Z,1.73
2019-05-25T16:55:22.706Z,2.07
2019-05-25T16:57:51.095Z,3.40
2019-05-25T17:00:27.766Z,2.20
2019-05-25T17:02:57.336Z,1.97
2019-05-25T17:05:26.194Z,1.97
2019-05-25T17:07:54.609Z,1.77
2019-05-25T17:10:22.984Z,2.20
2019-05-25T17:12:51.348Z,2.00
2019-05-25T17:15:19.799Z,2.23
2019-05-25T17:17:48.188Z,2.40
2019-05-25T17:20:16.559Z,2.00
2019-05-25T17:22:45.004Z,2.17
2019-05-25T17:25:13.383Z,2.07
2019-05-25T17:27:41.806Z,2.17
2019-05-25T17:30:10.239Z,2.23
2019-05-25T17:32:38.617Z,2.00
2019-05-25T17:35:07.868Z,2.33
2019-05-25T17:37:36.284Z,2.00
2019-05-25T17:40:07.646Z,2.17
2019-05-25T17:42:36.017Z,2.00
2019-05-25T17:45:06.498Z,1.67
2019-05-25T17:47:35.440Z,1.90
2019-05-25T17:50:04.852Z,1.77
2019-05-25T17:52:33.270Z,1.63
2019-05-25T17:55:01.848Z,2.30
2019-05-25T17:57:30.226Z,1.90
2019-05-25T17:59:59.587Z,2.17
2019-05-25T18:02:28.120Z,2.23
2019-05-25T18:04:56.552Z,2.20
2019-05-25T18:07:24.944Z,3.07
2019-05-25T18:09:53.638Z,2.70
2019-05-25T18:12:22.060Z,2.57
2019-05-25T18:14:50.516Z,2.20
2019-05-25T18:17:19.019Z,2.40
2019-05-25T18:19:47.423Z,2.30
2019-05-25T18:22:15.946Z,2.20
2019-05-25T18:24:44.413Z,2.10
2019-05-25T18:27:12.974Z,2.10
2019-05-25T18:29:41.287Z,2.10
2019-05-25T18:32:10.005Z,1.93
2019-05-25T18:34:38.410Z,1.80
2019-05-25T18:37:06.874Z,1.80
2019-05-25T18:39:35.278Z,3.80
2019-05-25T18:42:03.789Z,2.50
2019-05-25T18:44:32.344Z,2.10
2019-05-25T18:47:00.764Z,2.20
2019-05-25T18:49:29.195Z,2.60
2019-05-25T18:51:57.586Z,2.97
2019-05-25T18:54:25.961Z,2.33
2019-05-25T18:56:54.478Z,2.20
2019-05-25T18:59:22.847Z,2.03
2019-05-25T19:01:51.354Z,2.30
2019-05-25T19:04:19.726Z,1.80
2019-05-25T19:06:48.156Z,2.00
2019-05-25T19:09:16.608Z,2.80
2019-05-25T19:11:44.960Z,2.00
2019-05-25T19:14:13.382Z,1.97
2019-05-25T19:16:41.761Z,1.80
2019-05-25T19:19:10.134Z,2.20
2019-05-25T19:21:39.345Z,2.03
2019-05-25T19:24:07.733Z,1.90
2019-05-25T19:26:36.141Z,1.80
2019-05-25T19:29:05.696Z,1.90
2019-05-25T19:31:34.426Z,11.30
2019-05-25T19:34:02.833Z,2.53
2019-05-25T19:36:31.330Z,2.90
2019-05-25T19:38:59.714Z,2.50
2019-05-25T19:41:28.184Z,2.47
2019-05-25T19:43:56.585Z,2.60
2019-05-25T19:46:24.970Z,2.60
2019-05-25T19:48:53.369Z,2.87
2019-05-25T19:51:24.509Z,3.10
2019-05-25T19:53:52.892Z,3.23
2019-05-25T19:56:21.387Z,3.00
2019-05-25T19:58:49.771Z,4.00
2019-05-25T20:01:18.199Z,4.83
2019-05-25T20:03:46.592Z,3.40
2019-05-25T20:06:14.957Z,3.10
2019-05-25T20:08:43.373Z,3.27
2019-05-25T20:11:11.865Z,2.83
2019-05-25T20:13:40.249Z,3.07
2019-05-25T20:16:08.648Z,3.00
2019-05-25T20:18:37.068Z,3.63
2019-05-25T20:21:05.431Z,2.83
2019-05-25T20:23:33.838Z,2.97
2019-05-25T20:26:02.263Z,3.00
2019-05-25T20:28:30.740Z,3.50
2019-05-25T20:30:59.148Z,3.00
2019-05-25T20:33:28.330Z,3.13
2019-05-25T20:35:59.673Z,3.50
2019-05-25T20:38:28.007Z,3.70
2019-05-25T20:40:56.565Z,3.37
2019-05-25T20:43:24.937Z,3.63
2019-05-25T20:45:53.381Z,3.80
2019-05-25T20:48:21.786Z,3.80
2019-05-25T20:50:50.176Z,3.53
2019-05-25T20:53:18.599Z,3.60
2019-05-25T20:55:46.989Z,3.70
2019-05-25T20:58:15.408Z,3.70
2019-05-25T21:00:43.815Z,3.30
2019-05-25T21:03:12.201Z,3.33
2019-05-25T21:05:50.242Z,4.07
2019-05-25T21:08:11.109Z,3.70
2019-05-25T21:10:39.873Z,3.80
2019-05-25T21:13:08.295Z,4.17
2019-05-25T21:15:36.673Z,4.20
2019-05-25T21:18:05.065Z,4.30
2019-05-25T21:20:33.483Z,3.47
2019-05-25T21:23:01.868Z,4.27
2019-05-25T21:25:30.256Z,3.40
2019-05-25T21:27:58.680Z,3.90
2019-05-25T21:30:27.071Z,4.37
2019-05-25T21:32:55.477Z,4.07
2019-05-25T21:35:23.867Z,3.70
2019-05-25T21:37:52.270Z,4.00
2019-05-25T21:40:20.744Z,4.10
2019-05-25T21:42:49.127Z,4.13
2019-05-25T21:45:18.080Z,4.20
2019-05-25T21:47:46.493Z,4.47
2019-05-25T21:50:14.883Z,4.83
2019-05-25T21:52:43.249Z,4.17
2019-05-25T21:55:11.692Z,5.13
2019-05-25T21:57:40.137Z,4.43
2019-05-25T22:00:10.657Z,4.37
2019-05-25T22:02:39.132Z,4.07
2019-05-25T22:05:07.613Z,4.10
2019-05-25T22:07:35.964Z,4.37
2019-05-25T22:10:05.035Z,3.93
2019-05-25T22:12:33.406Z,4.00
2019-05-25T22:15:01.790Z,4.10
2019-05-25T22:17:30.249Z,3.60
2019-05-25T22:19:58.630Z,4.23
2019-05-25T22:22:27.017Z,4.00
2019-05-25T22:24:55.415Z,3.60
2019-05-25T22:27:23.782Z,4.03
2019-05-25T22:29:52.182Z,4.53
2019-05-25T22:32:20.753Z,4.13
2019-05-25T22:34:49.140Z,4.43
2019-05-25T22:37:17.508Z,4.60
2019-05-25T22:39:45.914Z,4.00
2019-05-25T22:42:14.342Z,4.30
2019-05-25T22:44:42.760Z,4.17
2019-05-25T22:47:11.131Z,4.47
2019-05-25T22:49:39.504Z,3.43
2019-05-25T22:52:07.952Z,4.50
2019-05-25T22:54:36.353Z,4.20
2019-05-25T22:57:05.501Z,4.10
2019-05-25T22:59:34.356Z,4.37
2019-05-25T23:02:02.808Z,4.00
2019-05-25T23:04:31.226Z,4.60
2019-05-25T23:06:59.625Z,4.40
2019-05-25T23:09:28.007Z,4.87
2019-05-25T23:11:56.419Z,5.17
2019-05-25T23:14:25.075Z,5.27
2019-05-25T23:16:53.460Z,5.13
2019-05-25T23:19:21.905Z,4.63
2019-05-25T23:21:50.310Z,4.83
2019-05-25T23:24:18.706Z,5.50
2019-05-25T23:26:47.141Z,5.97
2019-05-25T23:29:15.518Z,5.77
2019-05-25T23:31:43.902Z,5.87
2019-05-25T23:34:12.298Z,6.03
2019-05-25T23:36:40.733Z,5.70
2019-05-25T23:39:09.111Z,6.37
2019-05-25T23:41:37.500Z,5.80
2019-05-25T23:44:05.871Z,5.90
2019-05-25T23:46:34.301Z,5.33
2019-05-25T23:49:02.675Z,6.40
2019-05-25T23:51:32.120Z,6.60
2019-05-25T23:54:00.559Z,6.00
2019-05-25T23:56:28.927Z,6.13
2019-05-25T23:58:57.379Z,6.57
